PWSweather.com
Personal Weather Stations
Station Observations
KMIEASTT1
Tawas Bay, East Tawas, MI 48730

Tawas BayEast Tawas, MI 48730

Lat: 44.28, Lon: -83.48

Elevation: 600

Station Type: Davis VantagePro

http://www.tawasbayweather.com

High Low Average
Temperature 41.8°F5.4°C 27.8°F-2.3°C 34.1°F1.2°C
Dew Point 31.2°F-0.4°C 25.3°F-3.7°C 28.2°F-2.1°C
Winds 12.0 mph 19.3 kmh Calm Calm 3.0 mph NW4.8 kmh NW
Wind Gusts 12.0 mph19.3 kmh 1.0 mph1.6 kmh 5.0 mph8.0 kmh
Humidity 91% 60% 80%
Pressure 30.28 in1025.4 mb 30.18 in1022.0 mb -
Precipitation 0.00 in0.0 mm - -
Hour Temp Dew Point Humidity Winds Wind Gusts Pressure Precip Precip Rate Daily Precip Total
12:02 AM 30.8°F-0.7°C 28.2°F-2.1°C 90% 1.0 mph N1.6 kmh N 2.0 mph3.2 kmh 30.20 in1022.7 mb 0.00 in0.0 mm 0.00 in/hr0.0 mm/hr 0.00 in0.0 mm
12:16 AM 31.0°F-0.6°C 28.1°F-2.2°C 89% 1.0 mph N1.6 kmh N 2.0 mph3.2 kmh 30.21 in1023.0 mb 0.00 in0.0 mm 0.00 in/hr0.0 mm/hr 0.00 in0.0 mm
12:31 AM 31.1°F-0.5°C 28.2°F-2.1°C 89% 1.0 mph N1.6 kmh N 3.0 mph4.8 kmh 30.20 in1022.7 mb 0.00 in0.0 mm 0.00 in/hr0.0 mm/hr 0.00 in0.0 mm
12:46 AM 30.9°F-0.6°C 28.3°F-2.1°C 90% 2.0 mph N3.2 kmh N 4.0 mph6.4 kmh 30.20 in1022.7 mb 0.00 in0.0 mm 0.00 in/hr0.0 mm/hr 0.00 in0.0 mm
01:02 AM 30.9°F-0.6°C 28.3°F-2.1°C 90% 1.0 mph N1.6 kmh N 2.0 mph3.2 kmh 30.20 in1022.7 mb 0.00 in0.0 mm 0.00 in/hr0.0 mm/hr 0.00 in0.0 mm
01:15 AM 31.0°F-0.6°C 28.1°F-2.2°C 89% 2.0 mph N3.2 kmh N 3.0 mph4.8 kmh 30.20 in1022.7 mb 0.00 in0.0 mm 0.00 in/hr0.0 mm/hr 0.00 in0.0 mm
01:31 AM 30.8°F-0.7°C 28.0°F-2.2°C 89% 1.0 mph NNW1.6 kmh NNW 4.0 mph6.4 kmh 30.20 in1022.7 mb 0.00 in0.0 mm 0.00 in/hr0.0 mm/hr 0.00 in0.0 mm
01:46 AM 30.8°F-0.7°C 28.0°F-2.2°C 89% 2.0 mph NNW3.2 kmh NNW 3.0 mph4.8 kmh 30.20 in1022.7 mb 0.00 in0.0 mm 0.00 in/hr0.0 mm/hr 0.00 in0.0 mm
02:02 AM 31.0°F-0.6°C 28.1°F-2.2°C 89% 2.0 mph N3.2 kmh N 2.0 mph3.2 kmh 30.20 in1022.7 mb 0.00 in0.0 mm 0.00 in/hr0.0 mm/hr 0.00 in0.0 mm
02:16 AM 31.1°F-0.5°C 28.2°F-2.1°C 89% Calm Calm 2.0 mph3.2 kmh 30.20 in1022.7 mb 0.00 in0.0 mm 0.00 in/hr0.0 mm/hr 0.00 in0.0 mm
02:31 AM 31.4°F-0.3°C 28.3°F-2.1°C 88% Calm Calm 2.0 mph3.2 kmh 30.20 in1022.7 mb 0.00 in0.0 mm 0.00 in/hr0.0 mm/hr 0.00 in0.0 mm
02:46 AM 31.6°F-0.2°C 28.5°F-1.9°C 88% 2.0 mph N3.2 kmh N 2.0 mph3.2 kmh 30.20 in1022.7 mb 0.00 in0.0 mm 0.00 in/hr0.0 mm/hr 0.00 in0.0 mm
03:02 AM 31.6°F-0.2°C 28.5°F-1.9°C 88% 1.0 mph N1.6 kmh N 2.0 mph3.2 kmh 30.20 in1022.7 mb 0.00 in0.0 mm 0.00 in/hr0.0 mm/hr 0.00 in0.0 mm
03:16 AM 31.6°F-0.2°C 28.7°F-1.8°C 89% 2.0 mph N3.2 kmh N 3.0 mph4.8 kmh 30.20 in1022.7 mb 0.00 in0.0 mm 0.00 in/hr0.0 mm/hr 0.00 in0.0 mm
03:31 AM 31.8°F-0.1°C 28.9°F-1.7°C 89% 2.0 mph NNW3.2 kmh NNW 3.0 mph4.8 kmh 30.20 in1022.7 mb 0.00 in0.0 mm 0.00 in/hr0.0 mm/hr 0.00 in0.0 mm
03:45 AM 31.9°F-0.1°C 29.0°F-1.7°C 89% 2.0 mph NNW3.2 kmh NNW 3.0 mph4.8 kmh 30.20 in1022.7 mb 0.00 in0.0 mm 0.00 in/hr0.0 mm/hr 0.00 in0.0 mm
04:02 AM 32.1°F0.1°C 29.2°F-1.6°C 89% 1.0 mph NNW1.6 kmh NNW 3.0 mph4.8 kmh 30.21 in1023.0 mb 0.00 in0.0 mm 0.00 in/hr0.0 mm/hr 0.00 in0.0 mm
04:16 AM 32.2°F0.1°C 29.1°F-1.6°C 88% 2.0 mph NNW3.2 kmh NNW 3.0 mph4.8 kmh 30.21 in1023.0 mb 0.00 in0.0 mm 0.00 in/hr0.0 mm/hr 0.00 in0.0 mm
04:31 AM 31.8°F-0.1°C 28.7°F-1.8°C 88% 1.0 mph NNW1.6 kmh NNW 3.0 mph4.8 kmh 30.21 in1023.0 mb 0.00 in0.0 mm 0.00 in/hr0.0 mm/hr 0.00 in0.0 mm
04:46 AM 31.3°F-0.4°C 28.4°F-2.0°C 89% 1.0 mph NNW1.6 kmh NNW 2.0 mph3.2 kmh 30.22 in1023.4 mb 0.00 in0.0 mm 0.00 in/hr0.0 mm/hr 0.00 in0.0 mm
05:01 AM 30.8°F-0.7°C 28.0°F-2.2°C 89% 2.0 mph NNW3.2 kmh NNW 3.0 mph4.8 kmh 30.22 in1023.4 mb 0.00 in0.0 mm 0.00 in/hr0.0 mm/hr 0.00 in0.0 mm
05:16 AM 30.3°F-0.9°C 27.7°F-2.4°C 90% 1.0 mph NNW1.6 kmh NNW 2.0 mph3.2 kmh 30.23 in1023.7 mb 0.00 in0.0 mm 0.00 in/hr0.0 mm/hr 0.00 in0.0 mm
05:30 AM 30.0°F-1.1°C 27.4°F-2.6°C 90% 1.0 mph NNW1.6 kmh NNW 2.0 mph3.2 kmh 30.23 in1023.7 mb 0.00 in0.0 mm 0.00 in/hr0.0 mm/hr 0.00 in0.0 mm
05:46 AM 29.9°F-1.2°C 27.3°F-2.6°C 90% Calm Calm 2.0 mph3.2 kmh 30.23 in1023.7 mb 0.00 in0.0 mm 0.00 in/hr0.0 mm/hr 0.00 in0.0 mm
06:02 AM 29.7°F-1.3°C 27.1°F-2.7°C 90% 1.0 mph NNW1.6 kmh NNW 2.0 mph3.2 kmh 30.24 in1024.0 mb 0.00 in0.0 mm 0.00 in/hr0.0 mm/hr 0.00 in0.0 mm
06:16 AM 29.6°F-1.3°C 27.0°F-2.8°C 90% 1.0 mph NNW1.6 kmh NNW 2.0 mph3.2 kmh 30.24 in1024.0 mb 0.00 in0.0 mm 0.00 in/hr0.0 mm/hr 0.00 in0.0 mm
06:31 AM 29.5°F-1.4°C 26.9°F-2.8°C 90% 1.0 mph NNW1.6 kmh NNW 1.0 mph1.6 kmh 30.24 in1024.0 mb 0.00 in0.0 mm 0.00 in/hr0.0 mm/hr 0.00 in0.0 mm
06:46 AM 29.4°F-1.4°C 26.6°F-3.0°C 89% 1.0 mph NNW1.6 kmh NNW 1.0 mph1.6 kmh 30.24 in1024.0 mb 0.00 in0.0 mm 0.00 in/hr0.0 mm/hr 0.00 in0.0 mm
07:01 AM 28.9°F-1.7°C 26.1°F-3.3°C 89% 1.0 mph NNW1.6 kmh NNW 1.0 mph1.6 kmh 30.24 in1024.0 mb 0.00 in0.0 mm 0.00 in/hr0.0 mm/hr 0.00 in0.0 mm
07:16 AM 28.4°F-2.0°C 25.6°F-3.6°C 89% 1.0 mph NNW1.6 kmh NNW 2.0 mph3.2 kmh 30.24 in1024.0 mb 0.00 in0.0 mm 0.00 in/hr0.0 mm/hr 0.00 in0.0 mm
07:31 AM 27.8°F-2.3°C 25.3°F-3.7°C 90% Calm Calm 2.0 mph3.2 kmh 30.24 in1024.0 mb 0.00 in0.0 mm 0.00 in/hr0.0 mm/hr 0.00 in0.0 mm
07:46 AM 28.0°F-2.2°C 25.7°F-3.5°C 91% 1.0 mph NNW1.6 kmh NNW 2.0 mph3.2 kmh 30.24 in1024.0 mb 0.00 in0.0 mm 0.00 in/hr0.0 mm/hr 0.00 in0.0 mm
08:02 AM 28.3°F-2.1°C 26.0°F-3.3°C 91% 2.0 mph NNW3.2 kmh NNW 2.0 mph3.2 kmh 30.24 in1024.0 mb 0.00 in0.0 mm 0.00 in/hr0.0 mm/hr 0.00 in0.0 mm
08:16 AM 29.1°F-1.6°C 26.8°F-2.9°C 91% 1.0 mph NNW1.6 kmh NNW 2.0 mph3.2 kmh 30.25 in1024.4 mb 0.00 in0.0 mm 0.00 in/hr0.0 mm/hr 0.00 in0.0 mm
08:32 AM 29.4°F-1.4°C 26.6°F-3.0°C 89% 2.0 mph NNW3.2 kmh NNW 2.0 mph3.2 kmh 30.25 in1024.4 mb 0.00 in0.0 mm 0.00 in/hr0.0 mm/hr 0.00 in0.0 mm
08:46 AM 30.1°F-1.1°C 27.5°F-2.5°C 90% 2.0 mph NNW3.2 kmh NNW 3.0 mph4.8 kmh 30.26 in1024.7 mb 0.00 in0.0 mm 0.00 in/hr0.0 mm/hr 0.00 in0.0 mm
09:02 AM 31.4°F-0.3°C 28.8°F-1.8°C 90% 2.0 mph NNW3.2 kmh NNW 3.0 mph4.8 kmh 30.26 in1024.7 mb 0.00 in0.0 mm 0.00 in/hr0.0 mm/hr 0.00 in0.0 mm
09:16 AM 32.4°F0.2°C 29.3°F-1.5°C 88% 2.0 mph NW3.2 kmh NW 3.0 mph4.8 kmh 30.27 in1025.1 mb 0.00 in0.0 mm 0.00 in/hr0.0 mm/hr 0.00 in0.0 mm
09:31 AM 33.5°F0.8°C 29.8°F-1.2°C 86% 3.0 mph NNW4.8 kmh NNW 4.0 mph6.4 kmh 30.27 in1025.1 mb 0.00 in0.0 mm 0.00 in/hr0.0 mm/hr 0.00 in0.0 mm
09:46 AM 34.5°F1.4°C 30.2°F-1.0°C 84% 3.0 mph NNW4.8 kmh NNW 5.0 mph8.0 kmh 30.28 in1025.4 mb 0.00 in0.0 mm 0.00 in/hr0.0 mm/hr 0.00 in0.0 mm
10:01 AM 35.6°F2.0°C 30.7°F-0.7°C 82% Calm Calm 4.0 mph6.4 kmh 30.27 in1025.1 mb 0.00 in0.0 mm 0.00 in/hr0.0 mm/hr 0.00 in0.0 mm
10:16 AM 36.9°F2.7°C 31.0°F-0.6°C 79% Calm Calm 2.0 mph3.2 kmh 30.28 in1025.4 mb 0.00 in0.0 mm 0.00 in/hr0.0 mm/hr 0.00 in0.0 mm
10:31 AM 38.5°F3.6°C 31.0°F-0.6°C 74% 1.0 mph N1.6 kmh N 4.0 mph6.4 kmh 30.28 in1025.4 mb 0.00 in0.0 mm 0.00 in/hr0.0 mm/hr 0.00 in0.0 mm
10:46 AM 38.7°F3.7°C 30.8°F-0.7°C 73% 1.0 mph NW1.6 kmh NW 5.0 mph8.0 kmh 30.28 in1025.4 mb 0.00 in0.0 mm 0.00 in/hr0.0 mm/hr 0.00 in0.0 mm
11:02 AM 39.7°F4.3°C 30.7°F-0.7°C 70% 2.0 mph NW3.2 kmh NW 3.0 mph4.8 kmh 30.28 in1025.4 mb 0.00 in0.0 mm 0.00 in/hr0.0 mm/hr 0.00 in0.0 mm
11:16 AM 40.0°F4.4°C 29.6°F-1.3°C 66% 4.0 mph NW6.4 kmh NW 6.0 mph9.7 kmh 30.28 in1025.4 mb 0.00 in0.0 mm 0.00 in/hr0.0 mm/hr 0.00 in0.0 mm
11:31 AM 40.7°F4.8°C 30.2°F-1.0°C 66% 1.0 mph NE1.6 kmh NE 4.0 mph6.4 kmh 30.28 in1025.4 mb 0.00 in0.0 mm 0.00 in/hr0.0 mm/hr 0.00 in0.0 mm
11:46 AM 40.1°F4.5°C 27.8°F-2.3°C 61% 1.0 mph NW1.6 kmh NW 4.0 mph6.4 kmh 30.27 in1025.1 mb 0.00 in0.0 mm 0.00 in/hr0.0 mm/hr 0.00 in0.0 mm
12:02 PM 39.6°F4.2°C 28.1°F-2.2°C 63% 4.0 mph N6.4 kmh N 4.0 mph6.4 kmh 30.27 in1025.1 mb 0.00 in0.0 mm 0.00 in/hr0.0 mm/hr 0.00 in0.0 mm
12:16 PM 39.6°F4.2°C 26.9°F-2.8°C 60% 3.0 mph NW4.8 kmh NW 4.0 mph6.4 kmh 30.27 in1025.1 mb 0.00 in0.0 mm 0.00 in/hr0.0 mm/hr 0.00 in0.0 mm
12:31 PM 39.3°F4.1°C 27.8°F-2.3°C 63% 4.0 mph NNW6.4 kmh NNW 8.0 mph12.9 kmh 30.26 in1024.7 mb 0.00 in0.0 mm 0.00 in/hr0.0 mm/hr 0.00 in0.0 mm
12:46 PM 39.0°F3.9°C 27.1°F-2.7°C 62% 1.0 mph NW1.6 kmh NW 6.0 mph9.7 kmh 30.26 in1024.7 mb 0.00 in0.0 mm 0.00 in/hr0.0 mm/hr 0.00 in0.0 mm
01:01 PM 41.8°F5.4°C 29.4°F-1.4°C 61% 4.0 mph NNW6.4 kmh NNW 6.0 mph9.7 kmh 30.25 in1024.4 mb 0.00 in0.0 mm 0.00 in/hr0.0 mm/hr 0.00 in0.0 mm
01:16 PM 39.5°F4.2°C 27.2°F-2.7°C 61% 2.0 mph NNW3.2 kmh NNW 7.0 mph11.3 kmh 30.25 in1024.4 mb 0.00 in0.0 mm 0.00 in/hr0.0 mm/hr 0.00 in0.0 mm
01:31 PM 38.1°F3.4°C 26.6°F-3.0°C 63% 7.0 mph SW11.3 kmh SW 8.0 mph12.9 kmh 30.24 in1024.0 mb 0.00 in0.0 mm 0.00 in/hr0.0 mm/hr 0.00 in0.0 mm
01:46 PM 37.7°F3.2°C 27.4°F-2.6°C 66% 10.0 mph WSW16.1 kmh WSW 11.0 mph17.7 kmh 30.24 in1024.0 mb 0.00 in0.0 mm 0.00 in/hr0.0 mm/hr 0.00 in0.0 mm
02:03 PM 37.3°F2.9°C 27.7°F-2.4°C 68% 6.0 mph WSW9.7 kmh WSW 10.0 mph16.1 kmh 30.23 in1023.7 mb 0.00 in0.0 mm 0.00 in/hr0.0 mm/hr 0.00 in0.0 mm
02:16 PM 37.4°F3.0°C 27.8°F-2.3°C 68% 8.0 mph WSW12.9 kmh WSW 9.0 mph14.5 kmh 30.23 in1023.7 mb 0.00 in0.0 mm 0.00 in/hr0.0 mm/hr 0.00 in0.0 mm
02:31 PM 37.6°F3.1°C 27.7°F-2.4°C 67% 7.0 mph SW11.3 kmh SW 7.0 mph11.3 kmh 30.22 in1023.4 mb 0.00 in0.0 mm 0.00 in/hr0.0 mm/hr 0.00 in0.0 mm
02:45 PM 35.8°F2.1°C 29.9°F-1.2°C 79% 6.0 mph S9.7 kmh S 10.0 mph16.1 kmh 30.22 in1023.4 mb 0.00 in0.0 mm 0.00 in/hr0.0 mm/hr 0.00 in0.0 mm
03:02 PM 35.2°F1.8°C 30.9°F-0.6°C 84% 8.0 mph S12.9 kmh S 11.0 mph17.7 kmh 30.22 in1023.4 mb 0.00 in0.0 mm 0.00 in/hr0.0 mm/hr 0.00 in0.0 mm
03:16 PM 35.5°F1.9°C 31.2°F-0.4°C 84% 6.0 mph S9.7 kmh S 9.0 mph14.5 kmh 30.22 in1023.4 mb 0.00 in0.0 mm 0.00 in/hr0.0 mm/hr 0.00 in0.0 mm
03:31 PM 36.3°F2.4°C 30.7°F-0.7°C 80% 4.0 mph SW6.4 kmh SW 6.0 mph9.7 kmh 30.21 in1023.0 mb 0.00 in0.0 mm 0.00 in/hr0.0 mm/hr 0.00 in0.0 mm
03:45 PM 39.6°F4.2°C 27.7°F-2.4°C 62% 7.0 mph WSW11.3 kmh WSW 9.0 mph14.5 kmh 30.21 in1023.0 mb 0.00 in0.0 mm 0.00 in/hr0.0 mm/hr 0.00 in0.0 mm
04:02 PM 39.1°F3.9°C 27.6°F-2.4°C 63% 7.0 mph WSW11.3 kmh WSW 11.0 mph17.7 kmh 30.21 in1023.0 mb 0.00 in0.0 mm 0.00 in/hr0.0 mm/hr 0.00 in0.0 mm
04:16 PM 39.4°F4.1°C 27.5°F-2.5°C 62% 7.0 mph WSW11.3 kmh WSW 11.0 mph17.7 kmh 30.20 in1022.7 mb 0.00 in0.0 mm 0.00 in/hr0.0 mm/hr 0.00 in0.0 mm
04:30 PM 39.4°F4.1°C 27.9°F-2.3°C 63% 6.0 mph W9.7 kmh W 12.0 mph19.3 kmh 30.20 in1022.7 mb 0.00 in0.0 mm 0.00 in/hr0.0 mm/hr 0.00 in0.0 mm
04:46 PM 39.6°F4.2°C 27.7°F-2.4°C 62% 4.0 mph NW6.4 kmh NW 9.0 mph14.5 kmh 30.20 in1022.7 mb 0.00 in0.0 mm 0.00 in/hr0.0 mm/hr 0.00 in0.0 mm
05:02 PM 38.2°F3.4°C 27.5°F-2.5°C 65% 12.0 mph WSW19.3 kmh WSW 12.0 mph19.3 kmh 30.20 in1022.7 mb 0.00 in0.0 mm 0.00 in/hr0.0 mm/hr 0.00 in0.0 mm
05:16 PM 38.5°F3.6°C 27.4°F-2.6°C 64% 5.0 mph WSW8.0 kmh WSW 12.0 mph19.3 kmh 30.20 in1022.7 mb 0.00 in0.0 mm 0.00 in/hr0.0 mm/hr 0.00 in0.0 mm
05:31 PM 37.0°F2.8°C 28.1°F-2.2°C 70% 8.0 mph WSW12.9 kmh WSW 10.0 mph16.1 kmh 30.19 in1022.4 mb 0.00 in0.0 mm 0.00 in/hr0.0 mm/hr 0.00 in0.0 mm
05:46 PM 35.8°F2.1°C 28.0°F-2.2°C 73% 8.0 mph WSW12.9 kmh WSW 11.0 mph17.7 kmh 30.18 in1022.0 mb 0.00 in0.0 mm 0.00 in/hr0.0 mm/hr 0.00 in0.0 mm
06:00 PM 35.7°F2.1°C 27.6°F-2.4°C 72% 6.0 mph WSW9.7 kmh WSW 9.0 mph14.5 kmh 30.19 in1022.4 mb 0.00 in0.0 mm 0.00 in/hr0.0 mm/hr 0.00 in0.0 mm
06:16 PM 35.0°F1.7°C 27.9°F-2.3°C 75% 8.0 mph WSW12.9 kmh WSW 10.0 mph16.1 kmh 30.19 in1022.4 mb 0.00 in0.0 mm 0.00 in/hr0.0 mm/hr 0.00 in0.0 mm
06:31 PM 34.4°F1.3°C 28.0°F-2.2°C 77% 5.0 mph WSW8.0 kmh WSW 9.0 mph14.5 kmh 30.19 in1022.4 mb 0.00 in0.0 mm 0.00 in/hr0.0 mm/hr 0.00 in0.0 mm
06:47 PM 33.6°F0.9°C 27.8°F-2.3°C 79% 6.0 mph WSW9.7 kmh WSW 6.0 mph9.7 kmh 30.19 in1022.4 mb 0.00 in0.0 mm 0.00 in/hr0.0 mm/hr 0.00 in0.0 mm
07:01 PM 33.6°F0.9°C 27.8°F-2.3°C 79% 7.0 mph WSW11.3 kmh WSW 8.0 mph12.9 kmh 30.19 in1022.4 mb 0.00 in0.0 mm 0.00 in/hr0.0 mm/hr 0.00 in0.0 mm
07:16 PM 33.5°F0.8°C 27.7°F-2.4°C 79% 7.0 mph WSW11.3 kmh WSW 8.0 mph12.9 kmh 30.19 in1022.4 mb 0.00 in0.0 mm 0.00 in/hr0.0 mm/hr 0.00 in0.0 mm
07:31 PM 34.2°F1.2°C 27.1°F-2.7°C 75% 4.0 mph W6.4 kmh W 12.0 mph19.3 kmh 30.20 in1022.7 mb 0.00 in0.0 mm 0.00 in/hr0.0 mm/hr 0.00 in0.0 mm
07:46 PM 33.9°F1.1°C 26.8°F-2.9°C 75% 4.0 mph WNW6.4 kmh WNW 7.0 mph11.3 kmh 30.19 in1022.4 mb 0.00 in0.0 mm 0.00 in/hr0.0 mm/hr 0.00 in0.0 mm
08:00 PM 33.7°F0.9°C 27.0°F-2.8°C 76% 3.0 mph WSW4.8 kmh WSW 6.0 mph9.7 kmh 30.19 in1022.4 mb 0.00 in0.0 mm 0.00 in/hr0.0 mm/hr 0.00 in0.0 mm
08:16 PM 33.4°F0.8°C 26.7°F-2.9°C 76% 5.0 mph NW8.0 kmh NW 7.0 mph11.3 kmh 30.20 in1022.7 mb 0.00 in0.0 mm 0.00 in/hr0.0 mm/hr 0.00 in0.0 mm
08:31 PM 33.2°F0.7°C 26.8°F-2.9°C 77% 3.0 mph W4.8 kmh W 6.0 mph9.7 kmh 30.19 in1022.4 mb 0.00 in0.0 mm 0.00 in/hr0.0 mm/hr 0.00 in0.0 mm
08:46 PM 32.8°F0.4°C 26.7°F-2.9°C 78% 3.0 mph WSW4.8 kmh WSW 5.0 mph8.0 kmh 30.18 in1022.0 mb 0.00 in0.0 mm 0.00 in/hr0.0 mm/hr 0.00 in0.0 mm
09:01 PM 31.9°F-0.1°C 26.7°F-2.9°C 81% 2.0 mph WSW3.2 kmh WSW 4.0 mph6.4 kmh 30.18 in1022.0 mb 0.00 in0.0 mm 0.00 in/hr0.0 mm/hr 0.00 in0.0 mm
09:16 PM 31.4°F-0.3°C 26.6°F-3.0°C 82% 3.0 mph WSW4.8 kmh WSW 4.0 mph6.4 kmh 30.18 in1022.0 mb 0.00 in0.0 mm 0.00 in/hr0.0 mm/hr 0.00 in0.0 mm
09:31 PM 31.2°F-0.4°C 26.7°F-2.9°C 83% 3.0 mph WSW4.8 kmh WSW 5.0 mph8.0 kmh 30.18 in1022.0 mb 0.00 in0.0 mm 0.00 in/hr0.0 mm/hr 0.00 in0.0 mm
09:46 PM 30.9°F-0.6°C 26.6°F-3.0°C 84% 4.0 mph SW6.4 kmh SW 6.0 mph9.7 kmh 30.18 in1022.0 mb 0.00 in0.0 mm 0.00 in/hr0.0 mm/hr 0.00 in0.0 mm
10:00 PM 30.9°F-0.6°C 26.6°F-3.0°C 84% 4.0 mph SW6.4 kmh SW 7.0 mph11.3 kmh 30.17 in1021.7 mb 0.00 in0.0 mm 0.00 in/hr0.0 mm/hr 0.00 in0.0 mm
10:16 PM 30.5°F-0.8°C 26.8°F-2.9°C 86% 5.0 mph WSW8.0 kmh WSW 7.0 mph11.3 kmh 30.17 in1021.7 mb 0.00 in0.0 mm 0.00 in/hr0.0 mm/hr 0.00 in0.0 mm
10:31 PM 30.5°F-0.8°C 26.5°F-3.1°C 85% 5.0 mph W8.0 kmh W 9.0 mph14.5 kmh 30.17 in1021.7 mb 0.00 in0.0 mm 0.00 in/hr0.0 mm/hr 0.00 in0.0 mm
10:46 PM 30.8°F-0.7°C 26.6°F-3.0°C 84% 7.0 mph WSW11.3 kmh WSW 8.0 mph12.9 kmh 30.17 in1021.7 mb 0.00 in0.0 mm 0.00 in/hr0.0 mm/hr 0.00 in0.0 mm
11:02 PM 30.7°F-0.7°C 26.5°F-3.1°C 84% 6.0 mph WSW9.7 kmh WSW 8.0 mph12.9 kmh 30.16 in1021.3 mb 0.00 in0.0 mm 0.00 in/hr0.0 mm/hr 0.00 in0.0 mm
11:15 PM 30.2°F-1.0°C 26.2°F-3.2°C 85% 9.0 mph WSW14.5 kmh WSW 10.0 mph16.1 kmh 30.15 in1021.0 mb 0.00 in0.0 mm 0.00 in/hr0.0 mm/hr 0.00 in0.0 mm
11:31 PM 30.1°F-1.1°C 26.4°F-3.1°C 86% 10.0 mph WSW16.1 kmh WSW 11.0 mph17.7 kmh 30.14 in1020.7 mb 0.00 in0.0 mm 0.00 in/hr0.0 mm/hr 0.00 in0.0 mm
11:46 PM 30.4°F-0.9°C 26.4°F-3.1°C 85% 3.0 mph W4.8 kmh W 10.0 mph16.1 kmh 30.15 in1021.0 mb 0.00 in0.0 mm 0.00 in/hr0.0 mm/hr 0.00 in0.0 mm